Time;durP1;ratioP1;P1;durP2;ratioP2;P2;SDS_P1;SDS_P2;PMS_P1;PMS_P2;Temp;Humidity;BMP_temperature;BMP_pressure;BME280_temperature;BME280_humidity;BME280_pressure;Samples;Min_cycle;Max_cycle;Signal;HPM_P1;HPM_P2
2022/07/22 00:00:39;;;;;;;;;;;21.70;99.90;;;;;;4970991;28;19997;-65
2022/07/22 00:03:07;;;;;;;;;;;21.80;99.90;;;;;;4969200;28;19963;-64
2022/07/22 00:05:36;;;;;;;;;;;21.80;99.90;;;;;;4967016;28;19972;-64
2022/07/22 00:08:06;;;;;;;;;;;21.80;99.90;;;;;;4970908;28;19968;-63
2022/07/22 00:10:34;;;;;;;;;;;21.80;99.90;;;;;;4971066;28;19975;-64
2022/07/22 00:13:01;;;;;;;;;;;21.80;99.90;;;;;;4969135;28;19966;-63
2022/07/22 00:15:29;;;;;;;;;;;21.80;99.90;;;;;;4965771;28;19967;-63
2022/07/22 00:17:58;;;;;;;;;;;21.60;99.90;;;;;;4969357;28;20075;-64
2022/07/22 00:20:25;;;;;;;;;;;21.30;99.90;;;;;;4971180;28;20037;-64
2022/07/22 00:22:53;;;;;;;;;;;21.10;99.90;;;;;;4969143;28;19990;-63
2022/07/22 00:25:22;;;;;;;;;;;21.20;99.90;;;;;;4963248;28;19995;-63
2022/07/22 00:27:50;;;;;;;;;;;21.30;99.90;;;;;;4964761;28;20047;-63
2022/07/22 00:30:18;;;;;;;;;;;21.30;99.90;;;;;;4963790;28;20046;-64
2022/07/22 00:32:46;;;;;;;;;;;21.30;99.90;;;;;;4967076;28;19977;-64
2022/07/22 00:35:14;;;;;;;;;;;21.60;99.90;;;;;;4968435;28;20111;-63
2022/07/22 00:37:41;;;;;;;;;;;21.70;99.90;;;;;;4968082;28;19966;-63
2022/07/22 00:40:10;;;;;;;;;;;21.70;99.90;;;;;;4967663;28;20188;-65
2022/07/22 00:42:39;;;;;;;;;;;21.60;99.90;;;;;;4966567;28;19970;-64
2022/07/22 00:45:08;;;;;;;;;;;21.50;99.90;;;;;;4963946;28;19969;-64
2022/07/22 00:47:36;;;;;;;;;;;21.40;99.90;;;;;;4967357;28;19982;-64
2022/07/22 00:50:04;;;;;;;;;;;21.30;99.90;;;;;;4969775;28;20018;-66
2022/07/22 00:52:32;;;;;;;;;;;21.30;99.90;;;;;;4969332;28;19973;-65
2022/07/22 00:55:00;;;;;;;;;;;21.30;99.90;;;;;;4967143;28;19962;-65
2022/07/22 00:57:28;;;;;;;;;;;21.70;99.90;;;;;;4971147;28;20059;-64
2022/07/22 00:59:58;;;;;;;;;;;21.60;99.90;;;;;;4973529;28;19966;-64
2022/07/22 01:02:25;;;;;;;;;;;21.40;99.90;;;;;;4972595;28;19964;-64
2022/07/22 01:04:53;;;;;;;;;;;21.30;99.90;;;;;;4973774;28;19974;-65
2022/07/22 01:07:21;;;;;;;;;;;21.30;99.90;;;;;;4973026;28;20006;-65
2022/07/22 01:09:49;;;;;;;;;;;21.10;99.90;;;;;;4973059;28;20328;-64
2022/07/22 01:12:17;;;;;;;;;;;20.80;99.90;;;;;;4973767;28;20373;-64
2022/07/22 01:14:44;;;;;;;;;;;20.60;99.90;;;;;;4971362;28;20630;-64
2022/07/22 01:17:14;;;;;;;;;;;20.50;99.90;;;;;;4971316;28;19960;-64
2022/07/22 01:19:42;;;;;;;;;;;20.30;99.90;;;;;;4973462;28;19969;-64
2022/07/22 01:22:11;;;;;;;;;;;20.20;99.90;;;;;;4970779;28;19983;-64
2022/07/22 01:24:39;;;;;;;;;;;20.10;99.90;;;;;;4971458;28;20441;-64
2022/07/22 01:27:06;;;;;;;;;;;20.00;99.90;;;;;;4965813;28;19971;-65
2022/07/22 01:29:35;;;;;;;;;;;20.20;99.90;;;;;;4969149;28;19970;-63
2022/07/22 01:32:02;;;;;;;;;;;20.20;99.90;;;;;;4972561;28;19960;-63
2022/07/22 01:34:30;;;;;;;;;;;20.30;99.90;;;;;;4971687;28;19967;-64
2022/07/22 01:36:58;;;;;;;;;;;20.40;99.90;;;;;;4970931;28;19960;-64
2022/07/22 01:39:27;;;;;;;;;;;20.20;99.90;;;;;;4971887;28;19976;-64
2022/07/22 01:41:55;;;;;;;;;;;20.00;99.90;;;;;;4971305;28;20010;-65
2022/07/22 01:44:22;;;;;;;;;;;19.90;99.90;;;;;;4974051;28;19960;-64
2022/07/22 01:46:50;;;;;;;;;;;19.70;99.90;;;;;;4972944;28;19964;-65
2022/07/22 01:49:18;;;;;;;;;;;19.70;99.90;;;;;;4972302;28;19968;-65
2022/07/22 01:51:46;;;;;;;;;;;20.10;99.90;;;;;;4972309;28;20348;-64
2022/07/22 01:54:14;;;;;;;;;;;19.90;99.90;;;;;;4971453;28;19964;-64
2022/07/22 01:56:43;;;;;;;;;;;20.00;99.90;;;;;;4968742;28;19960;-64
2022/07/22 01:59:11;;;;;;;;;;;20.00;99.90;;;;;;4971327;28;19960;-64
2022/07/22 02:01:39;;;;;;;;;;;20.00;99.90;;;;;;4972048;28;20331;-63
2022/07/22 02:04:07;;;;;;;;;;;20.10;99.90;;;;;;4972023;28;19960;-64
2022/07/22 02:06:34;;;;;;;;;;;19.70;99.90;;;;;;4969556;28;20012;-63
2022/07/22 02:09:03;;;;;;;;;;;19.70;99.90;;;;;;4966979;28;20018;-64
2022/07/22 02:11:30;;;;;;;;;;;19.40;99.90;;;;;;4972812;28;19962;-63
2022/07/22 02:14:00;;;;;;;;;;;19.80;99.90;;;;;;4970245;28;19968;-63
2022/07/22 02:16:28;;;;;;;;;;;19.70;99.90;;;;;;4972241;28;19960;-63
2022/07/22 02:18:56;;;;;;;;;;;19.50;99.90;;;;;;4970727;28;20003;-63
2022/07/22 02:21:24;;;;;;;;;;;19.30;99.90;;;;;;4971670;28;20034;-64
2022/07/22 02:23:52;;;;;;;;;;;19.30;99.90;;;;;;4969884;28;19971;-63
2022/07/22 02:26:20;;;;;;;;;;;19.20;99.90;;;;;;4967036;28;19971;-64
2022/07/22 02:28:48;;;;;;;;;;;19.20;99.90;;;;;;4971870;28;19968;-64
2022/07/22 02:31:17;;;;;;;;;;;19.50;99.90;;;;;;4972830;28;19982;-64
2022/07/22 02:33:45;;;;;;;;;;;19.30;99.90;;;;;;4973202;28;19964;-62
2022/07/22 02:36:14;;;;;;;;;;;19.40;99.90;;;;;;4971619;28;19964;-63
2022/07/22 02:38:42;;;;;;;;;;;19.70;99.90;;;;;;4969979;28;19999;-62
2022/07/22 02:41:10;;;;;;;;;;;19.50;99.90;;;;;;4971528;28;19971;-63
2022/07/22 02:43:38;;;;;;;;;;;19.60;99.90;;;;;;4971273;28;19967;-63
2022/07/22 02:46:05;;;;;;;;;;;19.70;99.90;;;;;;4969325;28;20387;-62
2022/07/22 02:48:35;;;;;;;;;;;20.00;99.90;;;;;;4972946;28;20008;-63
2022/07/22 02:51:03;;;;;;;;;;;20.10;99.90;;;;;;4973870;28;20063;-64
2022/07/22 02:53:31;;;;;;;;;;;19.90;99.90;;;;;;4974017;28;20048;-63
2022/07/22 02:55:58;;;;;;;;;;;19.90;99.90;;;;;;4967003;28;20008;-63
2022/07/22 02:58:26;;;;;;;;;;;19.90;99.90;;;;;;4970822;28;19960;-62
2022/07/22 03:00:54;;;;;;;;;;;19.70;99.90;;;;;;4970483;28;19960;-63
2022/07/22 03:03:23;;;;;;;;;;;19.70;99.90;;;;;;4967160;28;19964;-63
2022/07/22 03:05:52;;;;;;;;;;;19.70;99.90;;;;;;4966953;28;20063;-63
2022/07/22 03:08:20;;;;;;;;;;;19.40;99.90;;;;;;4971259;28;22145;-63
2022/07/22 03:10:48;;;;;;;;;;;19.40;99.90;;;;;;4971218;28;19968;-63
2022/07/22 03:13:16;;;;;;;;;;;19.10;99.90;;;;;;4969807;28;20066;-62
2022/07/22 03:15:44;;;;;;;;;;;18.80;99.90;;;;;;4970003;28;20058;-63
2022/07/22 03:18:11;;;;;;;;;;;18.80;99.90;;;;;;4970465;28;19965;-62
2022/07/22 03:20:39;;;;;;;;;;;18.70;99.90;;;;;;4969781;28;19960;-63
2022/07/22 03:23:09;;;;;;;;;;;18.70;99.90;;;;;;4969754;28;19960;-63
2022/07/22 03:25:36;;;;;;;;;;;18.90;99.90;;;;;;4970313;28;19964;-63
2022/07/22 03:28:04;;;;;;;;;;;19.00;99.90;;;;;;4968362;28;19960;-63
2022/07/22 03:30:32;;;;;;;;;;;19.10;99.90;;;;;;4971382;28;19960;-63
2022/07/22 03:33:00;;;;;;;;;;;19.00;99.90;;;;;;4966727;28;19960;-62
2022/07/22 03:35:28;;;;;;;;;;;19.10;99.90;;;;;;4969887;28;20018;-62
2022/07/22 03:37:56;;;;;;;;;;;18.90;99.90;;;;;;4969573;28;20081;-62
2022/07/22 03:40:25;;;;;;;;;;;18.70;99.90;;;;;;4968849;28;19968;-62
2022/07/22 03:42:53;;;;;;;;;;;18.60;99.90;;;;;;4970523;28;20036;-63
2022/07/22 03:45:21;;;;;;;;;;;18.60;99.90;;;;;;4969399;28;19960;-64
2022/07/22 03:47:48;;;;;;;;;;;18.50;99.90;;;;;;4972948;28;20014;-63
2022/07/22 03:50:16;;;;;;;;;;;18.50;99.90;;;;;;4973605;28;19976;-63
2022/07/22 03:52:44;;;;;;;;;;;18.50;99.90;;;;;;4972650;28;19965;-63
2022/07/22 03:55:12;;;;;;;;;;;18.50;99.90;;;;;;4973218;28;19964;-63
2022/07/22 03:57:41;;;;;;;;;;;18.40;99.90;;;;;;4961829;28;20429;-63
2022/07/22 04:00:09;;;;;;;;;;;18.40;99.90;;;;;;4955913;28;19969;-63
2022/07/22 04:02:37;;;;;;;;;;;18.40;99.90;;;;;;4954703;28;19980;-63
2022/07/22 04:05:05;;;;;;;;;;;18.70;99.90;;;;;;4954032;28;19964;-62
2022/07/22 04:07:33;;;;;;;;;;;18.50;99.90;;;;;;4955398;28;19972;-63
2022/07/22 04:10:05;;;;;;;;;;;18.50;99.90;;;;;;4957260;28;19970;-64
2022/07/22 04:12:34;;;;;;;;;;;18.50;99.90;;;;;;4955048;28;19968;-64
2022/07/22 04:15:03;;;;;;;;;;;18.50;99.90;;;;;;4953935;28;19964;-63
2022/07/22 04:17:31;;;;;;;;;;;18.70;99.90;;;;;;4956978;28;19964;-64
2022/07/22 04:20:00;;;;;;;;;;;18.70;99.90;;;;;;4954302;28;20564;-63
2022/07/22 04:22:28;;;;;;;;;;;18.60;99.90;;;;;;4953875;28;20414;-64
2022/07/22 04:24:56;;;;;;;;;;;18.50;99.90;;;;;;4957735;28;19975;-64
2022/07/22 04:27:24;;;;;;;;;;;18.50;99.90;;;;;;4957268;28;20345;-65
2022/07/22 04:29:52;;;;;;;;;;;18.50;99.90;;;;;;4955785;28;19973;-63
2022/07/22 04:32:21;;;;;;;;;;;18.70;99.90;;;;;;4956683;28;19968;-64
2022/07/22 04:34:49;;;;;;;;;;;18.60;99.90;;;;;;4959212;28;19980;-64
2022/07/22 04:37:17;;;;;;;;;;;18.70;99.90;;;;;;4958923;28;20429;-63
2022/07/22 04:39:45;;;;;;;;;;;18.70;99.90;;;;;;4957739;28;19975;-62
2022/07/22 04:42:13;;;;;;;;;;;18.80;99.90;;;;;;4957747;28;19975;-64
2022/07/22 04:44:41;;;;;;;;;;;19.00;99.90;;;;;;4958235;28;19975;-63
2022/07/22 04:47:08;;;;;;;;;;;19.50;99.90;;;;;;4957357;28;19981;-63
2022/07/22 04:49:38;;;;;;;;;;;19.60;99.90;;;;;;4957453;28;19972;-64
2022/07/22 04:52:06;;;;;;;;;;;19.60;99.90;;;;;;4956664;28;19968;-64
2022/07/22 04:54:36;;;;;;;;;;;19.60;99.90;;;;;;4956901;28;20445;-65
2022/07/22 04:57:04;;;;;;;;;;;19.50;99.90;;;;;;4955643;28;19974;-64
2022/07/22 04:59:31;;;;;;;;;;;19.30;99.90;;;;;;4958384;28;19964;-64
2022/07/22 05:01:59;;;;;;;;;;;19.20;99.90;;;;;;4957623;28;19967;-64
2022/07/22 05:04:27;;;;;;;;;;;19.10;99.90;;;;;;4956882;28;20085;-64
2022/07/22 05:06:56;;;;;;;;;;;19.20;99.90;;;;;;4957186;28;20764;-65
2022/07/22 05:09:24;;;;;;;;;;;19.50;99.90;;;;;;4956749;28;20969;-64
2022/07/22 05:11:52;;;;;;;;;;;19.80;99.90;;;;;;4958508;28;19975;-63
2022/07/22 05:14:21;;;;;;;;;;;19.80;99.90;;;;;;4955977;28;19968;-65
2022/07/22 05:16:49;;;;;;;;;;;19.90;99.90;;;;;;4956649;28;19972;-65
2022/07/22 05:19:17;;;;;;;;;;;20.00;99.90;;;;;;4958046;28;20403;-65
2022/07/22 05:21:44;;;;;;;;;;;20.10;99.90;;;;;;4958237;28;19964;-65
2022/07/22 05:24:14;;;;;;;;;;;20.20;99.90;;;;;;4954694;28;19992;-63
2022/07/22 05:26:42;;;;;;;;;;;20.40;99.90;;;;;;4956757;28;19976;-62
2022/07/22 05:29:09;;;;;;;;;;;20.10;99.90;;;;;;4958068;28;19969;-63
2022/07/22 05:31:37;;;;;;;;;;;20.00;99.90;;;;;;4956976;28;20407;-64
2022/07/22 05:34:07;;;;;;;;;;;19.90;99.90;;;;;;4954114;28;20101;-64
2022/07/22 05:36:35;;;;;;;;;;;20.00;99.90;;;;;;4957202;28;20484;-63
2022/07/22 05:39:03;;;;;;;;;;;20.30;99.90;;;;;;4958447;28;20536;-64
2022/07/22 05:41:32;;;;;;;;;;;20.30;99.90;;;;;;4957880;28;20051;-64
2022/07/22 05:44:03;;;;;;;;;;;20.30;99.90;;;;;;4955250;28;26211;-64
2022/07/22 05:46:33;;;;;;;;;;;20.10;99.90;;;;;;4956384;28;19968;-64
2022/07/22 05:49:01;;;;;;;;;;;20.00;99.90;;;;;;4957673;28;20064;-65
2022/07/22 05:51:29;;;;;;;;;;;20.10;99.90;;;;;;4956257;28;19972;-64
2022/07/22 05:53:56;;;;;;;;;;;20.20;99.90;;;;;;4954909;28;20015;-64
2022/07/22 05:56:24;;;;;;;;;;;20.20;99.90;;;;;;4959023;28;19974;-63
2022/07/22 05:58:55;;;;;;;;;;;20.20;99.90;;;;;;4958134;28;20058;-63
2022/07/22 06:01:24;;;;;;;;;;;20.30;99.90;;;;;;4956308;28;20009;-65
2022/07/22 06:03:51;;;;;;;;;;;20.20;99.90;;;;;;4954288;28;19977;-65
2022/07/22 06:06:19;;;;;;;;;;;20.40;99.90;;;;;;4970232;28;19973;-64
2022/07/22 06:08:47;;;;;;;;;;;20.30;99.90;;;;;;4955711;28;19976;-64
2022/07/22 06:11:21;;;;;;;;;;;20.20;99.90;;;;;;4957734;28;19988;-64
2022/07/22 06:13:48;;;;;;;;;;;19.90;99.90;;;;;;4952334;28;19982;-65
2022/07/22 06:16:17;;;;;;;;;;;20.00;99.90;;;;;;4954547;28;20480;-65
2022/07/22 06:18:45;;;;;;;;;;;19.80;99.90;;;;;;4958338;28;20022;-65
2022/07/22 06:21:13;;;;;;;;;;;19.60;99.90;;;;;;4958603;28;20078;-66
2022/07/22 06:23:41;;;;;;;;;;;19.60;99.90;;;;;;4957519;28;19972;-64
2022/07/22 06:26:09;;;;;;;;;;;19.50;99.90;;;;;;4959348;28;20726;-64
2022/07/22 06:28:37;;;;;;;;;;;19.50;99.90;;;;;;4958216;28;19975;-64
2022/07/22 06:31:05;;;;;;;;;;;19.60;99.90;;;;;;4958178;28;20087;-64
2022/07/22 06:33:34;;;;;;;;;;;19.60;99.90;;;;;;4958152;28;19964;-65
2022/07/22 06:36:02;;;;;;;;;;;19.90;99.90;;;;;;4968253;28;20468;-64
2022/07/22 06:38:30;;;;;;;;;;;19.90;99.90;;;;;;4973995;28;19970;-65
2022/07/22 06:41:07;;;;;;;;;;;19.90;99.90;;;;;;4974613;28;20349;-64
2022/07/22 06:43:35;;;;;;;;;;;19.90;99.90;;;;;;4974308;28;20054;-64
2022/07/22 06:46:03;;;;;;;;;;;19.90;99.90;;;;;;4974360;28;19972;-64
2022/07/22 06:48:34;;;;;;;;;;;19.90;99.90;;;;;;4974721;28;20022;-64
2022/07/22 06:51:02;;;;;;;;;;;19.90;99.90;;;;;;4974305;28;19968;-65
2022/07/22 06:53:30;;;;;;;;;;;20.20;99.90;;;;;;4973357;28;20347;-64
2022/07/22 06:55:57;;;;;;;;;;;20.30;99.90;;;;;;4974400;28;19964;-65
2022/07/22 06:58:33;;;;;;;;;;;20.40;99.90;;;;;;4974415;28;20344;-65
2022/07/22 07:01:00;;;;;;;;;;;20.40;99.90;;;;;;4973322;28;20058;-65
2022/07/22 07:03:28;;;;;;;;;;;20.40;99.90;;;;;;4974005;28;19976;-65
2022/07/22 07:06:07;;;;;;;;;;;20.50;99.90;;;;;;4974076;28;19964;-64
2022/07/22 07:08:35;;;;;;;;;;;20.60;99.90;;;;;;4974245;28;20372;-64
2022/07/22 07:11:07;;;;;;;;;;;20.60;99.90;;;;;;4973900;28;19965;-64
2022/07/22 07:13:35;;;;;;;;;;;20.70;99.90;;;;;;4973805;28;20091;-64
2022/07/22 07:16:03;;;;;;;;;;;20.90;99.90;;;;;;4973965;28;19972;-64
2022/07/22 07:18:31;;;;;;;;;;;21.10;99.90;;;;;;4973607;28;19977;-65
2022/07/22 07:20:59;;;;;;;;;;;21.30;99.90;;;;;;4973569;28;20403;-64
2022/07/22 07:23:28;;;;;;;;;;;21.20;99.90;;;;;;4973612;28;19964;-65
2022/07/22 07:25:56;;;;;;;;;;;21.20;99.90;;;;;;4973799;28;19968;-64
2022/07/22 07:28:24;;;;;;;;;;;21.30;99.90;;;;;;4973720;28;20001;-65
2022/07/22 07:30:53;;;;;;;;;;;21.40;99.90;;;;;;4972914;28;19985;-64
2022/07/22 07:33:21;;;;;;;;;;;21.50;99.90;;;;;;4973446;28;20679;-64
2022/07/22 07:35:49;;;;;;;;;;;21.60;99.90;;;;;;4973629;28;20352;-64
2022/07/22 07:38:16;;;;;;;;;;;21.50;99.90;;;;;;4973679;28;20002;-64
2022/07/22 07:40:45;;;;;;;;;;;21.60;99.90;;;;;;4973597;28;19970;-64
2022/07/22 07:43:13;;;;;;;;;;;21.50;99.90;;;;;;4973231;28;20406;-64
2022/07/22 07:45:41;;;;;;;;;;;21.60;99.90;;;;;;4973251;28;19972;-64
2022/07/22 07:48:09;;;;;;;;;;;21.90;99.90;;;;;;4973433;28;20009;-65
2022/07/22 07:50:37;;;;;;;;;;;22.20;99.90;;;;;;4973295;28;20054;-64
2022/07/22 07:53:05;;;;;;;;;;;22.50;99.90;;;;;;4973063;28;19965;-65
2022/07/22 07:55:37;;;;;;;;;;;22.60;99.90;;;;;;4973269;28;20628;-64
2022/07/22 07:58:07;;;;;;;;;;;22.60;99.90;;;;;;4973144;28;19967;-64
2022/07/22 08:00:36;;;;;;;;;;;22.60;99.90;;;;;;4972515;28;20009;-64
2022/07/22 08:03:04;;;;;;;;;;;22.60;99.90;;;;;;4973056;28;19977;-65
2022/07/22 08:05:34;;;;;;;;;;;22.60;99.90;;;;;;4973415;28;20010;-65
2022/07/22 08:08:02;;;;;;;;;;;22.50;99.90;;;;;;4973268;28;19995;-64
2022/07/22 08:10:37;;;;;;;;;;;22.60;99.90;;;;;;4973239;28;20079;-64
2022/07/22 08:13:26;;;;;;;;;;;22.70;99.90;;;;;;4972880;28;20020;-65
2022/07/22 08:15:54;;;;;;;;;;;22.80;99.90;;;;;;4972638;28;19984;-64
2022/07/22 08:18:22;;;;;;;;;;;22.90;99.90;;;;;;4973123;28;20091;-64
2022/07/22 08:20:50;;;;;;;;;;;23.00;99.90;;;;;;4972868;28;20101;-64
2022/07/22 08:23:18;;;;;;;;;;;22.90;99.90;;;;;;4972689;28;20018;-64
2022/07/22 08:25:46;;;;;;;;;;;22.90;99.90;;;;;;4973186;28;20657;-65
2022/07/22 08:28:14;;;;;;;;;;;22.70;99.90;;;;;;4972972;28;20050;-64
2022/07/22 08:30:43;;;;;;;;;;;22.70;99.90;;;;;;4987321;28;20565;-64
2022/07/22 08:33:11;;;;;;;;;;;22.90;99.90;;;;;;5031253;23;20048;-65
2022/07/22 08:35:39;;;;;;;;;;;22.80;99.90;;;;;;5040795;28;20867;-63
2022/07/22 08:38:06;;;;;;;;;;;23.00;99.90;;;;;;5031962;28;19973;-63
2022/07/22 08:40:34;;;;;;;;;;;23.20;99.90;;;;;;5032054;28;19975;-63
2022/07/22 08:43:02;;;;;;;;;;;23.40;99.90;;;;;;5031120;28;20012;-63
2022/07/22 08:45:30;;;;;;;;;;;23.50;99.90;;;;;;5031578;28;19996;-63
2022/07/22 08:48:02;;;;;;;;;;;23.70;99.90;;;;;;5031352;28;19979;-63
2022/07/22 08:50:31;;;;;;;;;;;23.90;99.90;;;;;;5031437;28;20200;-63
2022/07/22 08:52:59;;;;;;;;;;;24.20;99.90;;;;;;5025245;28;20002;-63
2022/07/22 08:55:26;;;;;;;;;;;24.60;99.90;;;;;;5031474;28;20016;-63
2022/07/22 08:57:54;;;;;;;;;;;24.80;99.90;;;;;;5029175;28;20028;-63
2022/07/22 09:00:22;;;;;;;;;;;25.00;99.90;;;;;;5026761;28;20745;-63
2022/07/22 09:02:50;;;;;;;;;;;25.20;99.90;;;;;;5029977;28;19986;-63
2022/07/22 09:05:19;;;;;;;;;;;25.20;99.90;;;;;;5031292;28;19991;-63
2022/07/22 09:08:07;;;;;;;;;;;25.30;99.90;;;;;;5031370;28;19984;-63
2022/07/22 09:10:35;;;;;;;;;;;25.40;99.90;;;;;;5031146;28;19974;-63
2022/07/22 09:13:04;;;;;;;;;;;25.50;99.90;;;;;;5030740;28;20752;-63
2022/07/22 09:15:33;;;;;;;;;;;25.60;99.90;;;;;;5031211;28;20003;-63
2022/07/22 09:18:01;;;;;;;;;;;25.80;99.90;;;;;;5031634;28;20875;-64
2022/07/22 09:20:35;;;;;;;;;;;26.00;99.90;;;;;;5034888;28;20509;-63
2022/07/22 09:23:03;;;;;;;;;;;26.50;99.90;;;;;;5034309;28;20759;-63
2022/07/22 09:25:31;;;;;;;;;;;26.80;99.90;;;;;;5034757;28;20538;-63
2022/07/22 09:28:10;;;;;;;;;;;27.10;99.90;;;;;;5033776;28;20060;-64
2022/07/22 09:30:40;;;;;;;;;;;27.50;99.90;;;;;;5033536;28;20055;-63
2022/07/22 09:33:10;;;;;;;;;;;27.40;99.90;;;;;;5033110;28;20496;-63
2022/07/22 09:35:40;;;;;;;;;;;27.60;99.90;;;;;;5033289;28;20197;-64
2022/07/22 09:38:16;;;;;;;;;;;27.50;99.90;;;;;;5026872;28;19969;-64
2022/07/22 09:40:45;;;;;;;;;;;27.90;99.90;;;;;;5026683;28;20686;-63
2022/07/22 09:43:16;;;;;;;;;;;28.10;99.90;;;;;;5026233;28;20830;-64
2022/07/22 09:45:46;;;;;;;;;;;28.10;99.90;;;;;;5027150;28;20148;-63
2022/07/22 09:48:14;;;;;;;;;;;28.00;99.90;;;;;;5033165;28;20015;-63
2022/07/22 09:50:43;;;;;;;;;;;27.90;99.90;;;;;;5033151;28;19982;-64
2022/07/22 09:53:11;;;;;;;;;;;28.00;99.90;;;;;;5032469;28;20283;-64
2022/07/22 09:55:39;;;;;;;;;;;28.00;99.90;;;;;;5033138;28;20033;-63
2022/07/22 09:58:08;;;;;;;;;;;27.80;99.90;;;;;;5033083;28;20271;-64
2022/07/22 10:00:37;;;;;;;;;;;28.00;99.90;;;;;;5032125;28;21368;-63
2022/07/22 10:03:06;;;;;;;;;;;28.10;99.90;;;;;;5026461;28;20087;-64
2022/07/22 10:05:34;;;;;;;;;;;28.10;99.90;;;;;;5033021;28;20071;-64
2022/07/22 10:08:04;;;;;;;;;;;28.30;99.90;;;;;;5032833;28;20013;-63
2022/07/22 10:10:33;;;;;;;;;;;28.70;99.90;;;;;;5032766;28;20071;-64
2022/07/22 10:13:02;;;;;;;;;;;28.90;99.90;;;;;;5032542;28;20019;-63
2022/07/22 10:15:31;;;;;;;;;;;29.30;99.90;;;;;;5029006;28;20004;-64
2022/07/22 10:18:05;;;;;;;;;;;29.50;99.90;;;;;;5032294;28;20034;-64
2022/07/22 10:20:33;;;;;;;;;;;29.50;99.90;;;;;;5032794;28;20030;-63
2022/07/22 10:23:01;;;;;;;;;;;29.30;99.90;;;;;;5032353;28;19978;-64
2022/07/22 10:25:50;;;;;;;;;;;29.10;99.90;;;;;;5026244;28;20353;-64
2022/07/22 10:28:22;;;;;;;;;;;29.30;99.40;;;;;;5031767;28;21163;-64
2022/07/22 10:30:50;;;;;;;;;;;29.50;99.90;;;;;;5031865;28;20147;-63
2022/07/22 10:33:19;;;;;;;;;;;29.60;99.20;;;;;;4958175;28;2108578;-64
2022/07/22 10:35:57;;;;;;;;;;;29.60;98.80;;;;;;5032455;28;20974;-64
2022/07/22 10:38:26;;;;;;;;;;;29.80;98.50;;;;;;5027625;28;20026;-64
2022/07/22 10:40:56;;;;;;;;;;;29.80;98.50;;;;;;5032911;28;20671;-64
2022/07/22 10:43:24;;;;;;;;;;;29.80;98.90;;;;;;5032784;28;20053;-64
2022/07/22 10:45:53;;;;;;;;;;;30.10;99.70;;;;;;5033263;28;20268;-65
2022/07/22 10:48:22;;;;;;;;;;;30.40;97.90;;;;;;5032610;28;20592;-64
2022/07/22 10:50:55;;;;;;;;;;;30.40;98.40;;;;;;5032974;28;20000;-64
2022/07/22 10:53:24;;;;;;;;;;;30.20;97.10;;;;;;5032925;28;20212;-64
2022/07/22 10:56:00;;;;;;;;;;;30.00;98.00;;;;;;5032943;28;20172;-64
2022/07/22 10:58:48;;;;;;;;;;;30.20;98.10;;;;;;5030740;28;20054;-64
2022/07/22 11:01:16;;;;;;;;;;;30.50;97.50;;;;;;5031955;28;20503;-64
2022/07/22 11:03:45;;;;;;;;;;;30.90;96.50;;;;;;5032269;28;20627;-64
2022/07/22 11:06:14;;;;;;;;;;;30.80;96.40;;;;;;5032882;28;20495;-64
2022/07/22 11:08:42;;;;;;;;;;;30.90;96.30;;;;;;5027028;28;20627;-64
2022/07/22 11:11:11;;;;;;;;;;;30.90;95.80;;;;;;5032298;28;20015;-64
2022/07/22 11:13:40;;;;;;;;;;;30.60;96.30;;;;;;5032190;28;20312;-64
2022/07/22 11:16:15;;;;;;;;;;;30.60;95.90;;;;;;5032747;28;20781;-64
2022/07/22 11:18:47;;;;;;;;;;;30.60;96.40;;;;;;5027092;28;20043;-64
2022/07/22 11:21:19;;;;;;;;;;;30.80;96.80;;;;;;5032659;28;19998;-64
2022/07/22 11:23:49;;;;;;;;;;;31.40;95.90;;;;;;5032043;28;20126;-64
2022/07/22 11:26:19;;;;;;;;;;;31.60;96.70;;;;;;5032533;28;20036;-63
2022/07/22 11:28:47;;;;;;;;;;;31.80;94.20;;;;;;5031682;28;20885;-64
2022/07/22 11:31:16;;;;;;;;;;;32.30;95.40;;;;;;5031661;28;20675;-63
2022/07/22 11:33:43;;;;;;;;;;;32.50;94.30;;;;;;5031697;28;21124;-64
2022/07/22 11:36:12;;;;;;;;;;;32.50;94.00;;;;;;5032408;28;20012;-64
2022/07/22 11:38:41;;;;;;;;;;;32.20;92.90;;;;;;5031652;28;20511;-63
2022/07/22 11:41:09;;;;;;;;;;;31.70;92.50;;;;;;5032021;28;20032;-64
2022/07/22 11:43:42;;;;;;;;;;;32.00;94.30;;;;;;5031623;28;20481;-63
2022/07/22 11:46:10;;;;;;;;;;;32.20;92.80;;;;;;5032481;28;20430;-63
2022/07/22 11:48:38;;;;;;;;;;;32.20;92.70;;;;;;5031385;28;20623;-63
2022/07/22 11:51:06;;;;;;;;;;;32.40;91.20;;;;;;5032261;28;20045;-64
2022/07/22 11:53:35;;;;;;;;;;;32.40;90.00;;;;;;5031691;28;20217;-63
2022/07/22 11:56:04;;;;;;;;;;;32.50;90.00;;;;;;5032085;28;20111;-63
2022/07/22 11:58:39;;;;;;;;;;;32.90;91.10;;;;;;5031316;28;20595;-64
2022/07/22 12:01:09;;;;;;;;;;;32.90;89.00;;;;;;5025588;28;20123;-63
2022/07/22 12:03:38;;;;;;;;;;;32.90;89.70;;;;;;5029418;28;20022;-63
2022/07/22 12:06:07;;;;;;;;;;;33.40;88.70;;;;;;5031949;28;20812;-64
2022/07/22 12:08:36;;;;;;;;;;;33.90;87.20;;;;;;5026736;28;19963;-63
2022/07/22 12:11:04;;;;;;;;;;;34.30;88.00;;;;;;5031783;28;20702;-63
2022/07/22 12:13:32;;;;;;;;;;;34.20;85.30;;;;;;5031328;28;25139;-63
2022/07/22 12:16:20;;;;;;;;;;;34.20;82.90;;;;;;5032072;28;20043;-63
2022/07/22 12:18:51;;;;;;;;;;;34.00;85.10;;;;;;5028768;28;20008;-64
2022/07/22 12:21:20;;;;;;;;;;;33.90;81.80;;;;;;5031888;28;20268;-63
2022/07/22 12:23:52;;;;;;;;;;;33.90;83.40;;;;;;5031909;28;20922;-64
2022/07/22 12:26:20;;;;;;;;;;;34.30;84.10;;;;;;5031680;28;19994;-64
2022/07/22 12:28:48;;;;;;;;;;;34.30;82.30;;;;;;5030410;28;25075;-63
2022/07/22 12:31:16;;;;;;;;;;;33.80;82.60;;;;;;5031087;28;21026;-64
2022/07/22 12:33:51;;;;;;;;;;;33.30;83.40;;;;;;5030993;28;20232;-64
2022/07/22 12:36:19;;;;;;;;;;;33.20;82.80;;;;;;5031717;28;20752;-64
2022/07/22 12:38:47;;;;;;;;;;;33.30;82.10;;;;;;5030756;28;19974;-64
2022/07/22 12:41:25;;;;;;;;;;;33.40;81.60;;;;;;5030143;28;20682;-64
2022/07/22 12:43:52;;;;;;;;;;;33.10;81.30;;;;;;5031112;28;20464;-64
2022/07/22 12:46:21;;;;;;;;;;;33.20;81.20;;;;;;5031529;28;20501;-64
2022/07/22 12:48:49;;;;;;;;;;;33.80;82.90;;;;;;5031303;28;20609;-63
2022/07/22 12:51:18;;;;;;;;;;;34.40;82.30;;;;;;5031776;28;21239;-65
2022/07/22 12:53:46;;;;;;;;;;;34.80;80.90;;;;;;5034036;28;25062;-63
2022/07/22 12:56:14;;;;;;;;;;;35.20;79.60;;;;;;5035365;28;20500;-64
2022/07/22 12:58:42;;;;;;;;;;;35.40;80.40;;;;;;5035423;28;21297;-64
2022/07/22 13:01:10;;;;;;;;;;;35.20;80.00;;;;;;5034690;28;25128;-64
2022/07/22 13:03:37;;;;;;;;;;;35.70;78.40;;;;;;5034866;28;20709;-64
2022/07/22 13:06:06;;;;;;;;;;;35.60;76.60;;;;;;5035333;28;20121;-65
2022/07/22 13:08:36;;;;;;;;;;;35.20;77.30;;;;;;5029023;28;25078;-64
2022/07/22 13:11:12;;;;;;;;;;;34.90;77.30;;;;;;5035087;28;20644;-64
2022/07/22 13:13:42;;;;;;;;;;;35.10;78.10;;;;;;5034784;28;19982;-64
2022/07/22 13:16:10;;;;;;;;;;;35.20;76.50;;;;;;5035090;28;20147;-64
2022/07/22 13:18:39;;;;;;;;;;;35.20;76.20;;;;;;5031795;28;25090;-65
2022/07/22 13:21:07;;;;;;;;;;;35.50;76.80;;;;;;5035031;28;20251;-64
2022/07/22 13:23:36;;;;;;;;;;;35.80;76.50;;;;;;5034275;28;25066;-64
2022/07/22 13:26:04;;;;;;;;;;;36.00;78.00;;;;;;5034644;28;20120;-64
2022/07/22 13:28:32;;;;;;;;;;;36.10;76.10;;;;;;5034799;28;20052;-64
2022/07/22 13:31:00;;;;;;;;;;;36.30;74.50;;;;;;5034157;28;25133;-64
2022/07/22 13:33:28;;;;;;;;;;;36.10;72.90;;;;;;5030724;28;20014;-64
2022/07/22 13:35:56;;;;;;;;;;;36.00;73.90;;;;;;5034606;28;20087;-64
2022/07/22 13:38:23;;;;;;;;;;;36.10;74.40;;;;;;5034640;28;19967;-64
2022/07/22 13:40:52;;;;;;;;;;;36.30;73.70;;;;;;5034447;28;25152;-63
2022/07/22 13:43:21;;;;;;;;;;;36.50;75.10;;;;;;5034195;28;20070;-65
2022/07/22 13:45:49;;;;;;;;;;;36.20;72.90;;;;;;5034429;28;21357;-64
2022/07/22 13:48:18;;;;;;;;;;;36.40;75.20;;;;;;5034361;28;25079;-64
2022/07/22 13:50:46;;;;;;;;;;;36.50;72.70;;;;;;5034360;28;20583;-64
2022/07/22 13:53:14;;;;;;;;;;;36.00;73.80;;;;;;5032926;28;20684;-65
2022/07/22 13:55:42;;;;;;;;;;;35.90;73.00;;;;;;5034061;28;25066;-64
2022/07/22 13:58:11;;;;;;;;;;;36.10;74.20;;;;;;5034359;28;20009;-64
2022/07/22 14:00:40;;;;;;;;;;;36.10;74.90;;;;;;5033793;28;20780;-63
2022/07/22 14:03:08;;;;;;;;;;;36.10;73.00;;;;;;5033487;28;20674;-64
2022/07/22 14:05:36;;;;;;;;;;;36.40;73.10;;;;;;5034072;28;20385;-64
2022/07/22 14:08:04;;;;;;;;;;;36.70;72.50;;;;;;5033344;28;20582;-64
2022/07/22 14:10:32;;;;;;;;;;;36.90;73.20;;;;;;5033942;28;20635;-64
2022/07/22 14:12:59;;;;;;;;;;;36.50;73.10;;;;;;5033565;28;20884;-64
2022/07/22 14:15:29;;;;;;;;;;;36.60;73.60;;;;;;5033759;28;20080;-64
2022/07/22 14:17:57;;;;;;;;;;;36.40;72.50;;;;;;5033862;28;20046;-64
2022/07/22 14:20:25;;;;;;;;;;;35.90;73.10;;;;;;5034162;28;20813;-64
2022/07/22 14:22:52;;;;;;;;;;;35.70;72.90;;;;;;5033634;28;25085;-64
2022/07/22 14:25:20;;;;;;;;;;;35.60;74.60;;;;;;5033552;28;21092;-64